sensor_id;sensor_type;location;lat;lon;timestamp;P1;durP1;ratioP1;P2;durP2;ratioP2
62796;SDS011;48839;48.546;-4.178;2022-10-17T00:01:38;2.65;;;0.80;;
62796;SDS011;48839;48.546;-4.178;2022-10-17T00:04:04;3.75;;;0.70;;
62796;SDS011;48839;48.546;-4.178;2022-10-17T00:06:30;8.90;;;0.85;;
62796;SDS011;48839;48.546;-4.178;2022-10-17T00:08:56;7.07;;;1.00;;
62796;SDS011;48839;48.546;-4.178;2022-10-17T00:11:22;2.10;;;0.60;;
62796;SDS011;48839;48.546;-4.178;2022-10-17T00:13:49;5.60;;;1.10;;
62796;SDS011;48839;48.546;-4.178;2022-10-17T00:16:21;9.68;;;1.30;;
62796;SDS011;48839;48.546;-4.178;2022-10-17T00:18:47;4.72;;;1.23;;
62796;SDS011;48839;48.546;-4.178;2022-10-17T00:21:14;10.80;;;1.50;;
62796;SDS011;48839;48.546;-4.178;2022-10-17T00:23:41;5.15;;;0.80;;
62796;SDS011;48839;48.546;-4.178;2022-10-17T00:26:06;10.57;;;1.15;;
62796;SDS011;48839;48.546;-4.178;2022-10-17T00:28:32;6.22;;;1.00;;
62796;SDS011;48839;48.546;-4.178;2022-10-17T00:30:59;9.90;;;1.45;;
62796;SDS011;48839;48.546;-4.178;2022-10-17T00:33:26;5.75;;;1.00;;
62796;SDS011;48839;48.546;-4.178;2022-10-17T00:36:02;3.97;;;0.90;;
62796;SDS011;48839;48.546;-4.178;2022-10-17T00:38:28;6.97;;;1.13;;
62796;SDS011;48839;48.546;-4.178;2022-10-17T00:40:54;8.13;;;1.00;;
62796;SDS011;48839;48.546;-4.178;2022-10-17T00:43:20;7.55;;;1.13;;
62796;SDS011;48839;48.546;-4.178;2022-10-17T00:45:47;4.13;;;1.20;;
62796;SDS011;48839;48.546;-4.178;2022-10-17T00:48:13;4.30;;;1.05;;
62796;SDS011;48839;48.546;-4.178;2022-10-17T00:50:40;7.68;;;1.00;;
62796;SDS011;48839;48.546;-4.178;2022-10-17T00:53:07;7.38;;;1.15;;
62796;SDS011;48839;48.546;-4.178;2022-10-17T00:55:34;6.03;;;0.90;;
62796;SDS011;48839;48.546;-4.178;2022-10-17T00:58:02;6.53;;;1.17;;
62796;SDS011;48839;48.546;-4.178;2022-10-17T01:00:29;5.18;;;1.17;;
62796;SDS011;48839;48.546;-4.178;2022-10-17T01:02:55;6.47;;;1.20;;
62796;SDS011;48839;48.546;-4.178;2022-10-17T01:05:21;3.30;;;1.20;;
62796;SDS011;48839;48.546;-4.178;2022-10-17T01:07:48;4.57;;;1.00;;
62796;SDS011;48839;48.546;-4.178;2022-10-17T01:10:15;4.47;;;1.48;;
62796;SDS011;48839;48.546;-4.178;2022-10-17T01:13:24;7.70;;;1.52;;
62796;SDS011;48839;48.546;-4.178;2022-10-17T01:15:47;3.40;;;0.82;;
62796;SDS011;48839;48.546;-4.178;2022-10-17T01:36:46;8.18;;;0.90;;
62796;SDS011;48839;48.546;-4.178;2022-10-17T01:41:51;7.38;;;1.00;;
62796;SDS011;48839;48.546;-4.178;2022-10-17T01:44:35;8.15;;;1.38;;
62796;SDS011;48839;48.546;-4.178;2022-10-17T01:47:06;5.43;;;1.08;;
62796;SDS011;48839;48.546;-4.178;2022-10-17T01:49:33;5.20;;;0.90;;
62796;SDS011;48839;48.546;-4.178;2022-10-17T01:52:05;6.03;;;1.45;;
62796;SDS011;48839;48.546;-4.178;2022-10-17T01:54:38;5.00;;;1.02;;
62796;SDS011;48839;48.546;-4.178;2022-10-17T01:57:06;8.75;;;1.67;;
62796;SDS011;48839;48.546;-4.178;2022-10-17T01:59:35;8.27;;;1.85;;
62796;SDS011;48839;48.546;-4.178;2022-10-17T02:02:02;8.00;;;1.20;;
62796;SDS011;48839;48.546;-4.178;2022-10-17T02:04:29;5.55;;;0.98;;
62796;SDS011;48839;48.546;-4.178;2022-10-17T02:06:55;8.00;;;1.40;;
62796;SDS011;48839;48.546;-4.178;2022-10-17T02:09:22;3.38;;;1.02;;
62796;SDS011;48839;48.546;-4.178;2022-10-17T02:19:56;5.85;;;1.08;;
62796;SDS011;48839;48.546;-4.178;2022-10-17T02:30:07;4.43;;;1.30;;
62796;SDS011;48839;48.546;-4.178;2022-10-17T02:32:37;4.82;;;1.10;;
62796;SDS011;48839;48.546;-4.178;2022-10-17T02:35:04;9.38;;;1.30;;
62796;SDS011;48839;48.546;-4.178;2022-10-17T02:37:32;4.30;;;1.40;;
62796;SDS011;48839;48.546;-4.178;2022-10-17T02:39:59;6.78;;;1.33;;
62796;SDS011;48839;48.546;-4.178;2022-10-17T02:42:25;5.55;;;1.33;;
62796;SDS011;48839;48.546;-4.178;2022-10-17T02:44:52;8.07;;;1.40;;
62796;SDS011;48839;48.546;-4.178;2022-10-17T02:49:46;11.23;;;2.63;;
62796;SDS011;48839;48.546;-4.178;2022-10-17T02:52:21;8.75;;;1.95;;
62796;SDS011;48839;48.546;-4.178;2022-10-17T02:54:53;4.32;;;1.17;;
62796;SDS011;48839;48.546;-4.178;2022-10-17T02:57:30;4.07;;;1.40;;
62796;SDS011;48839;48.546;-4.178;2022-10-17T02:59:58;7.75;;;1.58;;
62796;SDS011;48839;48.546;-4.178;2022-10-17T03:02:25;9.05;;;1.67;;
62796;SDS011;48839;48.546;-4.178;2022-10-17T03:04:51;9.23;;;1.40;;
62796;SDS011;48839;48.546;-4.178;2022-10-17T03:07:17;12.23;;;1.58;;
62796;SDS011;48839;48.546;-4.178;2022-10-17T03:09:43;7.65;;;1.50;;
62796;SDS011;48839;48.546;-4.178;2022-10-17T03:12:09;6.82;;;1.55;;
62796;SDS011;48839;48.546;-4.178;2022-10-17T03:14:35;7.30;;;1.13;;
62796;SDS011;48839;48.546;-4.178;2022-10-17T03:17:01;7.78;;;1.83;;
62796;SDS011;48839;48.546;-4.178;2022-10-17T03:19:27;13.60;;;1.75;;
62796;SDS011;48839;48.546;-4.178;2022-10-17T03:21:53;7.85;;;1.35;;
62796;SDS011;48839;48.546;-4.178;2022-10-17T03:24:20;5.45;;;1.25;;
62796;SDS011;48839;48.546;-4.178;2022-10-17T03:26:46;7.75;;;1.40;;
62796;SDS011;48839;48.546;-4.178;2022-10-17T03:29:12;8.00;;;1.38;;
62796;SDS011;48839;48.546;-4.178;2022-10-17T03:31:38;12.23;;;1.55;;
62796;SDS011;48839;48.546;-4.178;2022-10-17T03:34:04;6.95;;;1.27;;
62796;SDS011;48839;48.546;-4.178;2022-10-17T03:36:30;5.35;;;1.13;;
62796;SDS011;48839;48.546;-4.178;2022-10-17T03:38:56;6.57;;;1.40;;
62796;SDS011;48839;48.546;-4.178;2022-10-17T03:41:22;9.55;;;1.33;;
62796;SDS011;48839;48.546;-4.178;2022-10-17T03:43:48;6.90;;;1.23;;
62796;SDS011;48839;48.546;-4.178;2022-10-17T03:46:17;7.82;;;1.27;;
62796;SDS011;48839;48.546;-4.178;2022-10-17T03:48:43;6.45;;;1.30;;
62796;SDS011;48839;48.546;-4.178;2022-10-17T03:51:09;10.85;;;1.40;;
62796;SDS011;48839;48.546;-4.178;2022-10-17T03:53:35;9.63;;;1.10;;
62796;SDS011;48839;48.546;-4.178;2022-10-17T03:56:12;11.68;;;1.55;;
62796;SDS011;48839;48.546;-4.178;2022-10-17T03:58:38;5.72;;;1.50;;
62796;SDS011;48839;48.546;-4.178;2022-10-17T04:01:09;8.60;;;1.45;;
62796;SDS011;48839;48.546;-4.178;2022-10-17T04:03:35;4.75;;;1.42;;
62796;SDS011;48839;48.546;-4.178;2022-10-17T04:06:02;3.55;;;0.98;;
62796;SDS011;48839;48.546;-4.178;2022-10-17T04:08:28;8.88;;;1.10;;
62796;SDS011;48839;48.546;-4.178;2022-10-17T04:10:57;7.93;;;1.23;;
62796;SDS011;48839;48.546;-4.178;2022-10-17T04:13:23;5.22;;;1.00;;
62796;SDS011;48839;48.546;-4.178;2022-10-17T04:15:59;4.47;;;1.10;;
62796;SDS011;48839;48.546;-4.178;2022-10-17T04:18:26;8.60;;;1.20;;
62796;SDS011;48839;48.546;-4.178;2022-10-17T04:20:52;14.18;;;1.80;;
62796;SDS011;48839;48.546;-4.178;2022-10-17T04:23:18;5.72;;;1.27;;
62796;SDS011;48839;48.546;-4.178;2022-10-17T04:25:44;13.00;;;1.75;;
62796;SDS011;48839;48.546;-4.178;2022-10-17T04:28:10;12.70;;;1.60;;
62796;SDS011;48839;48.546;-4.178;2022-10-17T04:30:36;13.70;;;1.58;;
62796;SDS011;48839;48.546;-4.178;2022-10-17T04:33:03;12.30;;;1.42;;
62796;SDS011;48839;48.546;-4.178;2022-10-17T04:35:29;5.45;;;0.85;;
62796;SDS011;48839;48.546;-4.178;2022-10-17T04:37:55;8.80;;;1.20;;
62796;SDS011;48839;48.546;-4.178;2022-10-17T04:40:21;12.13;;;1.45;;
62796;SDS011;48839;48.546;-4.178;2022-10-17T04:42:47;7.55;;;1.27;;
62796;SDS011;48839;48.546;-4.178;2022-10-17T04:45:13;6.50;;;1.42;;
62796;SDS011;48839;48.546;-4.178;2022-10-17T04:47:39;9.27;;;1.60;;
62796;SDS011;48839;48.546;-4.178;2022-10-17T04:50:05;10.10;;;1.55;;
62796;SDS011;48839;48.546;-4.178;2022-10-17T04:52:33;5.32;;;1.38;;
62796;SDS011;48839;48.546;-4.178;2022-10-17T04:55:01;13.85;;;1.60;;
62796;SDS011;48839;48.546;-4.178;2022-10-17T04:57:27;7.18;;;1.17;;
62796;SDS011;48839;48.546;-4.178;2022-10-17T04:59:53;12.02;;;1.48;;
62796;SDS011;48839;48.546;-4.178;2022-10-17T05:02:19;8.27;;;1.55;;
62796;SDS011;48839;48.546;-4.178;2022-10-17T05:04:45;6.32;;;1.10;;
62796;SDS011;48839;48.546;-4.178;2022-10-17T05:07:11;14.63;;;2.67;;
62796;SDS011;48839;48.546;-4.178;2022-10-17T05:09:37;5.75;;;1.40;;
62796;SDS011;48839;48.546;-4.178;2022-10-17T05:12:03;6.75;;;1.17;;
62796;SDS011;48839;48.546;-4.178;2022-10-17T05:14:29;11.30;;;1.58;;
62796;SDS011;48839;48.546;-4.178;2022-10-17T05:16:55;7.88;;;1.70;;
62796;SDS011;48839;48.546;-4.178;2022-10-17T05:19:21;12.00;;;1.48;;
62796;SDS011;48839;48.546;-4.178;2022-10-17T05:21:47;7.05;;;1.30;;
62796;SDS011;48839;48.546;-4.178;2022-10-17T05:24:13;7.00;;;1.58;;
62796;SDS011;48839;48.546;-4.178;2022-10-17T05:26:39;10.93;;;1.40;;
62796;SDS011;48839;48.546;-4.178;2022-10-17T05:29:05;8.13;;;1.60;;
62796;SDS011;48839;48.546;-4.178;2022-10-17T05:31:31;5.65;;;1.42;;
62796;SDS011;48839;48.546;-4.178;2022-10-17T05:34:00;18.27;;;2.75;;
62796;SDS011;48839;48.546;-4.178;2022-10-17T05:36:27;9.48;;;1.55;;
62796;SDS011;48839;48.546;-4.178;2022-10-17T05:38:53;7.28;;;1.80;;
62796;SDS011;48839;48.546;-4.178;2022-10-17T05:41:19;6.97;;;1.70;;
62796;SDS011;48839;48.546;-4.178;2022-10-17T05:43:45;12.10;;;1.63;;
62796;SDS011;48839;48.546;-4.178;2022-10-17T05:46:11;9.00;;;2.33;;
62796;SDS011;48839;48.546;-4.178;2022-10-17T05:48:37;10.85;;;1.60;;
62796;SDS011;48839;48.546;-4.178;2022-10-17T05:51:04;13.60;;;2.03;;
62796;SDS011;48839;48.546;-4.178;2022-10-17T05:53:32;8.40;;;1.52;;
62796;SDS011;48839;48.546;-4.178;2022-10-17T05:55:59;7.65;;;1.80;;
62796;SDS011;48839;48.546;-4.178;2022-10-17T05:58:25;9.23;;;1.50;;
62796;SDS011;48839;48.546;-4.178;2022-10-17T06:00:56;7.13;;;1.50;;
62796;SDS011;48839;48.546;-4.178;2022-10-17T06:03:22;8.75;;;1.80;;
62796;SDS011;48839;48.546;-4.178;2022-10-17T06:05:48;6.82;;;1.42;;
62796;SDS011;48839;48.546;-4.178;2022-10-17T06:08:14;11.45;;;1.63;;
62796;SDS011;48839;48.546;-4.178;2022-10-17T06:10:40;6.38;;;1.75;;
62796;SDS011;48839;48.546;-4.178;2022-10-17T06:13:06;8.45;;;1.50;;
62796;SDS011;48839;48.546;-4.178;2022-10-17T06:15:33;8.95;;;1.48;;
62796;SDS011;48839;48.546;-4.178;2022-10-17T06:17:59;10.35;;;1.75;;
62796;SDS011;48839;48.546;-4.178;2022-10-17T06:20:25;9.88;;;1.60;;
62796;SDS011;48839;48.546;-4.178;2022-10-17T06:22:50;7.53;;;1.65;;
62796;SDS011;48839;48.546;-4.178;2022-10-17T06:25:16;6.32;;;1.35;;
62796;SDS011;48839;48.546;-4.178;2022-10-17T06:27:42;10.52;;;1.45;;
62796;SDS011;48839;48.546;-4.178;2022-10-17T06:30:09;7.38;;;2.15;;
62796;SDS011;48839;48.546;-4.178;2022-10-17T06:32:35;10.50;;;1.50;;
62796;SDS011;48839;48.546;-4.178;2022-10-17T06:35:01;10.75;;;2.03;;
62796;SDS011;48839;48.546;-4.178;2022-10-17T06:37:29;12.20;;;1.95;;
62796;SDS011;48839;48.546;-4.178;2022-10-17T06:39:55;13.02;;;1.40;;
62796;SDS011;48839;48.546;-4.178;2022-10-17T06:42:21;6.57;;;1.50;;
62796;SDS011;48839;48.546;-4.178;2022-10-17T06:44:47;13.50;;;1.90;;
62796;SDS011;48839;48.546;-4.178;2022-10-17T06:47:13;10.05;;;1.88;;
62796;SDS011;48839;48.546;-4.178;2022-10-17T06:49:40;13.35;;;2.25;;
62796;SDS011;48839;48.546;-4.178;2022-10-17T06:52:06;12.63;;;1.67;;
62796;SDS011;48839;48.546;-4.178;2022-10-17T06:54:32;6.43;;;2.17;;
62796;SDS011;48839;48.546;-4.178;2022-10-17T06:56:58;12.35;;;2.45;;
62796;SDS011;48839;48.546;-4.178;2022-10-17T06:59:24;12.60;;;2.00;;
62796;SDS011;48839;48.546;-4.178;2022-10-17T07:01:50;16.73;;;1.90;;
62796;SDS011;48839;48.546;-4.178;2022-10-17T07:04:16;13.00;;;2.33;;
62796;SDS011;48839;48.546;-4.178;2022-10-17T07:06:42;8.30;;;2.10;;
62796;SDS011;48839;48.546;-4.178;2022-10-17T07:09:08;10.80;;;1.80;;
62796;SDS011;48839;48.546;-4.178;2022-10-17T07:11:34;8.23;;;1.98;;
62796;SDS011;48839;48.546;-4.178;2022-10-17T07:14:00;4.30;;;2.30;;
62796;SDS011;48839;48.546;-4.178;2022-10-17T07:16:26;13.00;;;2.28;;
62796;SDS011;48839;48.546;-4.178;2022-10-17T07:18:52;10.05;;;2.20;;
62796;SDS011;48839;48.546;-4.178;2022-10-17T07:21:19;10.40;;;2.17;;
62796;SDS011;48839;48.546;-4.178;2022-10-17T07:23:45;6.82;;;1.98;;
62796;SDS011;48839;48.546;-4.178;2022-10-17T07:26:13;11.98;;;2.33;;
62796;SDS011;48839;48.546;-4.178;2022-10-17T07:28:41;9.38;;;1.85;;
62796;SDS011;48839;48.546;-4.178;2022-10-17T07:31:08;8.75;;;2.15;;
62796;SDS011;48839;48.546;-4.178;2022-10-17T07:33:35;14.85;;;2.50;;
62796;SDS011;48839;48.546;-4.178;2022-10-17T07:36:01;10.32;;;2.55;;
62796;SDS011;48839;48.546;-4.178;2022-10-17T07:38:28;8.18;;;2.22;;
62796;SDS011;48839;48.546;-4.178;2022-10-17T07:40:54;13.48;;;1.88;;
62796;SDS011;48839;48.546;-4.178;2022-10-17T07:43:21;10.38;;;2.50;;
62796;SDS011;48839;48.546;-4.178;2022-10-17T07:45:47;9.77;;;2.05;;
62796;SDS011;48839;48.546;-4.178;2022-10-17T07:48:13;8.27;;;1.98;;
62796;SDS011;48839;48.546;-4.178;2022-10-17T07:50:39;7.15;;;1.70;;
62796;SDS011;48839;48.546;-4.178;2022-10-17T07:53:05;5.55;;;1.70;;
62796;SDS011;48839;48.546;-4.178;2022-10-17T07:55:31;11.55;;;2.13;;
62796;SDS011;48839;48.546;-4.178;2022-10-17T07:57:57;14.02;;;2.35;;
62796;SDS011;48839;48.546;-4.178;2022-10-17T08:00:24;7.00;;;2.22;;
62796;SDS011;48839;48.546;-4.178;2022-10-17T08:02:50;15.65;;;2.33;;
62796;SDS011;48839;48.546;-4.178;2022-10-17T08:05:17;10.75;;;1.73;;
62796;SDS011;48839;48.546;-4.178;2022-10-17T08:07:43;8.20;;;2.17;;
62796;SDS011;48839;48.546;-4.178;2022-10-17T08:10:10;10.70;;;2.38;;
62796;SDS011;48839;48.546;-4.178;2022-10-17T08:12:36;11.63;;;2.28;;
62796;SDS011;48839;48.546;-4.178;2022-10-17T08:15:03;11.68;;;2.33;;
62796;SDS011;48839;48.546;-4.178;2022-10-17T08:17:29;13.77;;;2.72;;
62796;SDS011;48839;48.546;-4.178;2022-10-17T08:19:55;7.70;;;3.10;;
62796;SDS011;48839;48.546;-4.178;2022-10-17T08:22:21;13.07;;;2.00;;
62796;SDS011;48839;48.546;-4.178;2022-10-17T08:24:47;5.50;;;1.65;;
62796;SDS011;48839;48.546;-4.178;2022-10-17T08:27:13;12.18;;;1.95;;
62796;SDS011;48839;48.546;-4.178;2022-10-17T08:29:45;3.95;;;1.42;;
62796;SDS011;48839;48.546;-4.178;2022-10-17T08:32:12;9.82;;;1.75;;
62796;SDS011;48839;48.546;-4.178;2022-10-17T08:34:38;6.05;;;1.80;;
62796;SDS011;48839;48.546;-4.178;2022-10-17T08:37:04;7.15;;;1.95;;
62796;SDS011;48839;48.546;-4.178;2022-10-17T08:39:30;8.00;;;1.60;;
62796;SDS011;48839;48.546;-4.178;2022-10-17T08:46:55;9.07;;;1.73;;
62796;SDS011;48839;48.546;-4.178;2022-10-17T08:54:55;10.75;;;1.60;;
62796;SDS011;48839;48.546;-4.178;2022-10-17T08:57:21;9.10;;;1.80;;
62796;SDS011;48839;48.546;-4.178;2022-10-17T08:59:51;7.00;;;1.73;;
62796;SDS011;48839;48.546;-4.178;2022-10-17T09:04:59;7.50;;;1.65;;
62796;SDS011;48839;48.546;-4.178;2022-10-17T09:07:32;7.63;;;2.15;;
62796;SDS011;48839;48.546;-4.178;2022-10-17T09:20:10;9.15;;;1.70;;
62796;SDS011;48839;48.546;-4.178;2022-10-17T09:22:58;9.70;;;1.52;;
62796;SDS011;48839;48.546;-4.178;2022-10-17T09:25:23;11.00;;;2.10;;
62796;SDS011;48839;48.546;-4.178;2022-10-17T09:27:53;5.13;;;1.67;;
62796;SDS011;48839;48.546;-4.178;2022-10-17T09:30:30;12.82;;;1.92;;
62796;SDS011;48839;48.546;-4.178;2022-10-17T09:32:57;11.85;;;1.80;;
62796;SDS011;48839;48.546;-4.178;2022-10-17T09:35:23;8.57;;;1.90;;
62796;SDS011;48839;48.546;-4.178;2022-10-17T09:37:50;9.65;;;1.60;;
62796;SDS011;48839;48.546;-4.178;2022-10-17T09:40:34;8.48;;;1.35;;
62796;SDS011;48839;48.546;-4.178;2022-10-17T09:43:01;11.02;;;1.90;;
62796;SDS011;48839;48.546;-4.178;2022-10-17T09:45:30;12.07;;;2.00;;
62796;SDS011;48839;48.546;-4.178;2022-10-17T09:50:29;11.90;;;2.05;;
62796;SDS011;48839;48.546;-4.178;2022-10-17T09:52:56;7.07;;;1.98;;
62796;SDS011;48839;48.546;-4.178;2022-10-17T09:55:39;15.05;;;2.17;;
62796;SDS011;48839;48.546;-4.178;2022-10-17T09:58:06;8.70;;;1.83;;
62796;SDS011;48839;48.546;-4.178;2022-10-17T10:03:18;11.20;;;1.75;;
62796;SDS011;48839;48.546;-4.178;2022-10-17T10:06:01;8.63;;;2.40;;
62796;SDS011;48839;48.546;-4.178;2022-10-17T10:08:29;13.57;;;1.75;;
62796;SDS011;48839;48.546;-4.178;2022-10-17T10:10:59;8.25;;;1.60;;
62796;SDS011;48839;48.546;-4.178;2022-10-17T10:13:27;12.38;;;1.48;;
62796;SDS011;48839;48.546;-4.178;2022-10-17T10:15:53;8.40;;;1.50;;
62796;SDS011;48839;48.546;-4.178;2022-10-17T10:18:36;10.10;;;1.50;;
62796;SDS011;48839;48.546;-4.178;2022-10-17T10:21:19;12.30;;;2.45;;
62796;SDS011;48839;48.546;-4.178;2022-10-17T10:24:02;4.20;;;1.30;;
62796;SDS011;48839;48.546;-4.178;2022-10-17T10:26:33;7.65;;;1.45;;
62796;SDS011;48839;48.546;-4.178;2022-10-17T10:29:01;11.48;;;2.17;;
62796;SDS011;48839;48.546;-4.178;2022-10-17T10:31:38;10.32;;;1.83;;
62796;SDS011;48839;48.546;-4.178;2022-10-17T10:34:40;7.32;;;1.55;;
62796;SDS011;48839;48.546;-4.178;2022-10-17T10:37:15;5.68;;;1.15;;
62796;SDS011;48839;48.546;-4.178;2022-10-17T10:42:31;12.13;;;1.45;;
62796;SDS011;48839;48.546;-4.178;2022-10-17T10:45:00;8.07;;;1.33;;
62796;SDS011;48839;48.546;-4.178;2022-10-17T10:47:27;11.25;;;1.33;;
62796;SDS011;48839;48.546;-4.178;2022-10-17T10:55:22;6.47;;;1.05;;
62796;SDS011;48839;48.546;-4.178;2022-10-17T10:57:49;5.35;;;1.52;;
62796;SDS011;48839;48.546;-4.178;2022-10-17T11:00:22;8.82;;;1.27;;
62796;SDS011;48839;48.546;-4.178;2022-10-17T11:08:04;4.20;;;1.00;;
62796;SDS011;48839;48.546;-4.178;2022-10-17T11:11:01;7.43;;;1.60;;
62796;SDS011;48839;48.546;-4.178;2022-10-17T11:13:36;8.85;;;1.65;;
62796;SDS011;48839;48.546;-4.178;2022-10-17T11:16:15;7.05;;;1.60;;
62796;SDS011;48839;48.546;-4.178;2022-10-17T11:18:45;9.00;;;1.30;;
62796;SDS011;48839;48.546;-4.178;2022-10-17T11:21:14;9.50;;;1.20;;
62796;SDS011;48839;48.546;-4.178;2022-10-17T11:23:52;4.15;;;1.33;;
62796;SDS011;48839;48.546;-4.178;2022-10-17T11:26:25;8.02;;;1.20;;
62796;SDS011;48839;48.546;-4.178;2022-10-17T11:28:52;8.55;;;1.20;;
62796;SDS011;48839;48.546;-4.178;2022-10-17T11:31:18;4.70;;;1.00;;
62796;SDS011;48839;48.546;-4.178;2022-10-17T11:36:12;10.50;;;1.25;;
62796;SDS011;48839;48.546;-4.178;2022-10-17T11:38:46;11.07;;;1.17;;
62796;SDS011;48839;48.546;-4.178;2022-10-17T11:41:21;5.60;;;1.00;;
62796;SDS011;48839;48.546;-4.178;2022-10-17T11:43:51;7.72;;;1.17;;
62796;SDS011;48839;48.546;-4.178;2022-10-17T11:46:19;5.43;;;1.27;;
62796;SDS011;48839;48.546;-4.178;2022-10-17T11:51:13;8.93;;;1.42;;
62796;SDS011;48839;48.546;-4.178;2022-10-17T11:56:20;7.40;;;1.25;;
62796;SDS011;48839;48.546;-4.178;2022-10-17T11:59:23;5.40;;;1.17;;
62796;SDS011;48839;48.546;-4.178;2022-10-17T12:01:43;4.47;;;1.20;;
62796;SDS011;48839;48.546;-4.178;2022-10-17T12:11:57;5.80;;;1.00;;
62796;SDS011;48839;48.546;-4.178;2022-10-17T12:16:58;7.28;;;1.83;;
62796;SDS011;48839;48.546;-4.178;2022-10-17T12:19:25;5.45;;;1.10;;
62796;SDS011;48839;48.546;-4.178;2022-10-17T12:24:42;8.48;;;1.70;;
62796;SDS011;48839;48.546;-4.178;2022-10-17T12:29:46;9.40;;;1.40;;
62796;SDS011;48839;48.546;-4.178;2022-10-17T12:32:12;7.32;;;0.90;;
62796;SDS011;48839;48.546;-4.178;2022-10-17T12:34:46;6.95;;;1.27;;
62796;SDS011;48839;48.546;-4.178;2022-10-17T12:37:24;4.07;;;0.88;;
62796;SDS011;48839;48.546;-4.178;2022-10-17T12:40:01;6.07;;;1.33;;
62796;SDS011;48839;48.546;-4.178;2022-10-17T12:42:28;6.85;;;1.25;;
62796;SDS011;48839;48.546;-4.178;2022-10-17T12:44:54;5.28;;;1.02;;
62796;SDS011;48839;48.546;-4.178;2022-10-17T12:47:27;8.77;;;1.45;;
62796;SDS011;48839;48.546;-4.178;2022-10-17T12:49:53;8.52;;;1.23;;
62796;SDS011;48839;48.546;-4.178;2022-10-17T13:00:00;8.98;;;1.40;;
62796;SDS011;48839;48.546;-4.178;2022-10-17T13:02:27;9.15;;;1.15;;
62796;SDS011;48839;48.546;-4.178;2022-10-17T13:04:57;9.40;;;1.40;;
62796;SDS011;48839;48.546;-4.178;2022-10-17T13:07:27;5.72;;;1.10;;
62796;SDS011;48839;48.546;-4.178;2022-10-17T13:09:53;6.78;;;1.52;;
62796;SDS011;48839;48.546;-4.178;2022-10-17T13:12:23;6.90;;;0.98;;
62796;SDS011;48839;48.546;-4.178;2022-10-17T13:14:51;6.78;;;1.33;;
62796;SDS011;48839;48.546;-4.178;2022-10-17T13:17:22;6.13;;;0.90;;
62796;SDS011;48839;48.546;-4.178;2022-10-17T13:19:48;6.50;;;1.27;;
62796;SDS011;48839;48.546;-4.178;2022-10-17T13:22:18;5.47;;;1.08;;
62796;SDS011;48839;48.546;-4.178;2022-10-17T13:24:45;5.88;;;1.10;;
62796;SDS011;48839;48.546;-4.178;2022-10-17T13:27:23;7.60;;;1.20;;
62796;SDS011;48839;48.546;-4.178;2022-10-17T13:29:49;6.68;;;1.30;;
62796;SDS011;48839;48.546;-4.178;2022-10-17T13:32:15;6.38;;;1.17;;
62796;SDS011;48839;48.546;-4.178;2022-10-17T13:34:42;8.50;;;1.23;;
62796;SDS011;48839;48.546;-4.178;2022-10-17T13:37:09;5.43;;;0.85;;
62796;SDS011;48839;48.546;-4.178;2022-10-17T13:39:40;4.57;;;0.90;;
62796;SDS011;48839;48.546;-4.178;2022-10-17T13:42:15;3.70;;;1.25;;
62796;SDS011;48839;48.546;-4.178;2022-10-17T13:44:42;11.43;;;1.45;;
62796;SDS011;48839;48.546;-4.178;2022-10-17T13:47:19;7.07;;;1.30;;
62796;SDS011;48839;48.546;-4.178;2022-10-17T13:49:45;10.48;;;1.50;;
62796;SDS011;48839;48.546;-4.178;2022-10-17T13:52:17;5.70;;;1.40;;
62796;SDS011;48839;48.546;-4.178;2022-10-17T13:54:44;4.63;;;1.23;;
62796;SDS011;48839;48.546;-4.178;2022-10-17T13:57:18;7.38;;;1.50;;
62796;SDS011;48839;48.546;-4.178;2022-10-17T13:59:45;4.95;;;0.88;;
62796;SDS011;48839;48.546;-4.178;2022-10-17T14:02:13;5.68;;;1.02;;
62796;SDS011;48839;48.546;-4.178;2022-10-17T14:04:40;3.08;;;1.40;;
62796;SDS011;48839;48.546;-4.178;2022-10-17T14:07:11;6.80;;;1.13;;
62796;SDS011;48839;48.546;-4.178;2022-10-17T14:09:41;6.68;;;1.35;;
62796;SDS011;48839;48.546;-4.178;2022-10-17T14:12:11;9.43;;;1.23;;
62796;SDS011;48839;48.546;-4.178;2022-10-17T14:14:38;7.25;;;1.13;;
62796;SDS011;48839;48.546;-4.178;2022-10-17T14:17:11;4.18;;;1.10;;
62796;SDS011;48839;48.546;-4.178;2022-10-17T14:19:38;6.87;;;1.33;;
62796;SDS011;48839;48.546;-4.178;2022-10-17T14:22:17;6.25;;;1.08;;
62796;SDS011;48839;48.546;-4.178;2022-10-17T14:24:43;9.20;;;0.98;;
62796;SDS011;48839;48.546;-4.178;2022-10-17T14:27:27;8.70;;;1.33;;
62796;SDS011;48839;48.546;-4.178;2022-10-17T14:29:54;3.47;;;1.05;;
62796;SDS011;48839;48.546;-4.178;2022-10-17T14:32:24;7.25;;;1.20;;
62796;SDS011;48839;48.546;-4.178;2022-10-17T14:34:52;5.65;;;0.90;;
62796;SDS011;48839;48.546;-4.178;2022-10-17T14:40:00;6.40;;;0.90;;
62796;SDS011;48839;48.546;-4.178;2022-10-17T14:42:27;4.00;;;1.08;;
62796;SDS011;48839;48.546;-4.178;2022-10-17T14:44:54;3.63;;;1.00;;
62796;SDS011;48839;48.546;-4.178;2022-10-17T14:47:25;9.02;;;1.52;;
62796;SDS011;48839;48.546;-4.178;2022-10-17T14:55:26;10.57;;;1.45;;
62796;SDS011;48839;48.546;-4.178;2022-10-17T14:57:52;10.57;;;1.17;;
62796;SDS011;48839;48.546;-4.178;2022-10-17T15:00:19;6.82;;;1.05;;
62796;SDS011;48839;48.546;-4.178;2022-10-17T15:02:46;3.97;;;0.90;;
62796;SDS011;48839;48.546;-4.178;2022-10-17T15:05:12;6.85;;;0.82;;
62796;SDS011;48839;48.546;-4.178;2022-10-17T15:07:38;4.43;;;0.90;;
62796;SDS011;48839;48.546;-4.178;2022-10-17T15:10:05;5.05;;;1.23;;
62796;SDS011;48839;48.546;-4.178;2022-10-17T15:12:31;3.33;;;0.85;;
62796;SDS011;48839;48.546;-4.178;2022-10-17T15:14:57;4.93;;;1.00;;
62796;SDS011;48839;48.546;-4.178;2022-10-17T15:17:28;5.60;;;1.30;;
62796;SDS011;48839;48.546;-4.178;2022-10-17T15:19:55;4.72;;;0.95;;
62796;SDS011;48839;48.546;-4.178;2022-10-17T15:22:21;3.13;;;0.80;;
62796;SDS011;48839;48.546;-4.178;2022-10-17T15:24:47;5.50;;;1.00;;
62796;SDS011;48839;48.546;-4.178;2022-10-17T15:27:14;4.82;;;0.70;;
62796;SDS011;48839;48.546;-4.178;2022-10-17T15:29:41;2.80;;;0.90;;
62796;SDS011;48839;48.546;-4.178;2022-10-17T15:32:07;4.47;;;1.10;;
62796;SDS011;48839;48.546;-4.178;2022-10-17T15:34:33;3.55;;;0.82;;
62796;SDS011;48839;48.546;-4.178;2022-10-17T15:36:59;3.92;;;0.85;;
62796;SDS011;48839;48.546;-4.178;2022-10-17T15:39:25;2.53;;;0.88;;
62796;SDS011;48839;48.546;-4.178;2022-10-17T15:41:51;4.80;;;1.13;;
62796;SDS011;48839;48.546;-4.178;2022-10-17T15:44:17;2.67;;;0.70;;
62796;SDS011;48839;48.546;-4.178;2022-10-17T15:46:43;3.30;;;0.70;;
62796;SDS011;48839;48.546;-4.178;2022-10-17T15:49:11;3.38;;;0.68;;
62796;SDS011;48839;48.546;-4.178;2022-10-17T15:51:37;4.30;;;0.77;;
62796;SDS011;48839;48.546;-4.178;2022-10-17T15:54:03;2.40;;;0.60;;
62796;SDS011;48839;48.546;-4.178;2022-10-17T15:56:31;2.35;;;0.60;;
62796;SDS011;48839;48.546;-4.178;2022-10-17T15:59:00;4.53;;;0.90;;
62796;SDS011;48839;48.546;-4.178;2022-10-17T16:01:27;3.40;;;1.33;;
62796;SDS011;48839;48.546;-4.178;2022-10-17T16:03:54;5.40;;;1.80;;
62796;SDS011;48839;48.546;-4.178;2022-10-17T16:07:33;4.13;;;1.00;;
62796;SDS011;48839;48.546;-4.178;2022-10-17T16:09:59;2.55;;;1.20;;
62796;SDS011;48839;48.546;-4.178;2022-10-17T16:12:26;2.20;;;0.60;;
62796;SDS011;48839;48.546;-4.178;2022-10-17T16:14:54;3.05;;;0.73;;
62796;SDS011;48839;48.546;-4.178;2022-10-17T16:17:20;4.55;;;0.88;;
62796;SDS011;48839;48.546;-4.178;2022-10-17T16:19:46;0.98;;;0.60;;
62796;SDS011;48839;48.546;-4.178;2022-10-17T16:22:17;3.15;;;0.70;;
62796;SDS011;48839;48.546;-4.178;2022-10-17T16:24:44;2.97;;;0.57;;
62796;SDS011;48839;48.546;-4.178;2022-10-17T16:27:10;1.65;;;0.57;;
62796;SDS011;48839;48.546;-4.178;2022-10-17T16:29:36;1.52;;;0.57;;
62796;SDS011;48839;48.546;-4.178;2022-10-17T16:32:02;7.75;;;0.80;;
62796;SDS011;48839;48.546;-4.178;2022-10-17T16:34:28;1.02;;;0.50;;
62796;SDS011;48839;48.546;-4.178;2022-10-17T16:36:56;4.40;;;0.73;;
62796;SDS011;48839;48.546;-4.178;2022-10-17T16:39:22;2.47;;;0.50;;